Time;durP1;ratioP1;P1;durP2;ratioP2;P2;SDS_P1;SDS_P2;PMS_P1;PMS_P2;Temp;Humidity;BMP_temperature;BMP_pressure;BME280_temperature;BME280_humidity;BME280_pressure;Samples;Min_cycle;Max_cycle;Signal;HPM_P1;HPM_P2
2021/10/02 00:45:32;;;;;;;25.92;16.75;;;;;;;7.80;82.56;95380.43;1717388;82;21070;-56
2021/10/02 00:47:59;;;;;;;36.63;18.40;;;;;;;7.83;82.29;95379.60;1718749;82;21579;-57
2021/10/02 00:50:27;;;;;;;39.20;20.02;;;;;;;7.78;82.10;95375.38;1719500;82;21733;-56
2021/10/02 00:52:54;;;;;;;43.48;23.22;;;;;;;7.74;82.55;95374.64;1724069;82;21018;-57
2021/10/02 00:55:21;;;;;;;46.68;23.92;;;;;;;7.68;83.10;95372.20;1722928;82;21106;-56
2021/10/02 00:57:50;;;;;;;36.83;21.23;;;;;;;7.59;83.55;95371.95;1728751;82;21201;-57
2021/10/02 01:00:16;;;;;;;49.25;20.72;;;;;;;7.56;83.78;95367.87;1729266;82;21063;-56
2021/10/02 01:02:58;;;;;;;38.17;20.62;;;;;;;7.52;84.07;95365.79;1721922;82;21118;-56
2021/10/02 01:05:48;;;;;;;36.95;21.10;;;;;;;7.54;84.38;95360.67;1705113;82;21000;-56
2021/10/02 01:08:43;;;;;;;37.85;20.40;;;;;;;7.57;84.49;95366.11;1727859;82;21019;-58
2021/10/02 01:11:40;;;;;;;37.63;18.27;;;;;;;7.61;84.51;95359.19;1723441;82;21049;-57
2021/10/02 01:14:26;;;;;;;44.10;19.20;;;;;;;7.66;84.41;95360.88;1724752;82;21561;-55
2021/10/02 01:16:57;;;;;;;46.50;18.02;;;;;;;7.71;84.22;95361.02;1721900;82;21853;-56
2021/10/02 01:20:07;;;;;;;45.78;19.05;;;;;;;7.72;84.20;95353.74;1724109;82;21098;-56
2021/10/02 01:22:50;;;;;;;56.77;22.27;;;;;;;7.69;84.24;95357.31;1726242;82;21141;-56
2021/10/02 01:26:08;;;;;;;64.32;24.82;;;;;;;7.57;83.92;95356.53;1716405;83;21478;-55
2021/10/02 01:28:36;;;;;;;55.65;24.37;;;;;;;7.48;84.31;95356.86;1689333;82;21525;-56
2021/10/02 01:31:08;;;;;;;52.90;22.48;;;;;;;7.49;84.78;95354.30;1720363;82;21158;-55
2021/10/02 01:33:45;;;;;;;42.73;19.67;;;;;;;7.52;84.57;95354.84;1720424;82;21082;-56
2021/10/02 01:36:27;;;;;;;46.13;21.60;;;;;;;7.51;84.63;95351.92;1723150;82;21475;-56
2021/10/02 01:47:15;;;;;;;43.20;22.80;;;;;;;7.41;85.42;95356.94;1704961;82;20988;-56
2021/10/02 01:49:46;;;;;;;44.05;20.68;;;;;;;7.37;85.48;95352.11;1709966;82;21041;-56
2021/10/02 01:52:15;;;;;;;42.23;21.65;;;;;;;7.41;85.86;95349.52;1730750;82;20999;-55
2021/10/02 01:54:43;;;;;;;44.38;22.02;;;;;;;7.45;86.18;95350.23;1718339;82;21003;-56
2021/10/02 01:57:10;;;;;;;35.80;19.17;;;;;;;7.52;86.54;95351.49;1718495;82;21124;-55
2021/10/02 01:59:37;;;;;;;32.50;18.75;;;;;;;7.60;86.41;95347.48;1709485;82;21431;-56
2021/10/02 02:02:04;;;;;;;38.92;19.50;;;;;;;7.58;86.14;95351.23;1712120;82;21062;-56
2021/10/02 02:04:32;;;;;;;33.58;19.80;;;;;;;7.55;86.29;95345.19;1715110;82;21085;-55
2021/10/02 02:06:59;;;;;;;32.23;19.95;;;;;;;7.59;86.74;95339.09;1730968;83;21420;-56
2021/10/02 02:09:33;;;;;;;38.30;19.40;;;;;;;7.71;86.95;95346.72;1717923;82;21157;-57
2021/10/02 02:11:59;;;;;;;43.92;22.17;;;;;;;7.80;86.58;95352.47;1721017;82;21404;-56
2021/10/02 02:14:28;;;;;;;34.65;21.57;;;;;;;7.81;86.53;95343.05;1720013;82;21050;-56
2021/10/02 02:16:56;;;;;;;46.83;22.75;;;;;;;7.90;86.62;95345.27;1720550;82;21007;-56
2021/10/02 02:19:22;;;;;;;36.77;20.70;;;;;;;8.02;86.35;95342.72;1723424;82;20982;-56
2021/10/02 02:21:49;;;;;;;33.18;20.72;;;;;;;8.09;86.01;95338.48;1717040;82;21134;-57
2021/10/02 02:24:17;;;;;;;31.25;19.45;;;;;;;8.13;85.84;95339.80;1723646;82;20948;-57
2021/10/02 02:26:44;;;;;;;32.53;20.92;;;;;;;8.17;85.59;95335.03;1713371;82;21553;-56
2021/10/02 02:29:10;;;;;;;31.82;17.92;;;;;;;8.21;85.64;95342.04;1726122;82;21085;-56
2021/10/02 02:31:38;;;;;;;35.65;18.80;;;;;;;8.27;85.17;95334.88;1729057;83;21011;-56
2021/10/02 02:34:05;;;;;;;34.33;20.72;;;;;;;8.27;84.84;95331.38;1730641;82;21140;-56
2021/10/02 02:36:33;;;;;;;39.73;20.75;;;;;;;8.23;84.73;95334.78;1730610;83;21416;-57
2021/10/02 02:39:00;;;;;;;37.40;20.95;;;;;;;8.19;84.76;95335.41;1720048;82;20963;-56
2021/10/02 02:41:27;;;;;;;32.75;20.10;;;;;;;8.18;84.89;95334.66;1711315;82;21551;-57
2021/10/02 02:43:54;;;;;;;36.33;18.40;;;;;;;8.19;84.98;95336.20;1720564;82;21037;-56
2021/10/02 02:46:28;;;;;;;26.68;18.67;;;;;;;8.24;85.07;95337.70;1722902;82;21165;-56
2021/10/02 02:49:11;;;;;;;25.12;17.65;;;;;;;8.31;85.08;95338.36;1720946;82;21073;-57
2021/10/02 02:51:50;;;;;;;32.00;20.25;;;;;;;8.37;84.73;95339.42;1717559;82;20952;-56
2021/10/02 02:54:42;;;;;;;35.43;20.82;;;;;;;8.36;84.58;95341.19;1720581;82;21562;-56
2021/10/02 02:57:16;;;;;;;33.42;20.17;;;;;;;8.35;84.84;95343.75;1728120;82;20955;-56
2021/10/02 03:00:03;;;;;;;32.98;19.27;;;;;;;8.40;84.74;95345.43;1720461;82;21141;-56
2021/10/02 03:02:30;;;;;;;28.25;18.80;;;;;;;8.47;84.75;95339.81;1720148;82;20983;-56
2021/10/02 03:04:57;;;;;;;29.35;20.52;;;;;;;8.55;84.48;95339.88;1709217;82;21019;-57
2021/10/02 03:07:23;;;;;;;31.75;19.82;;;;;;;8.60;84.61;95336.64;1714533;82;21015;-57
2021/10/02 03:09:51;;;;;;;30.50;20.50;;;;;;;8.71;84.62;95335.07;1724723;82;21431;-57
2021/10/02 03:12:23;;;;;;;37.95;24.18;;;;;;;8.79;83.99;95332.39;1711223;83;20948;-55
2021/10/02 03:14:51;;;;;;;27.32;18.23;;;;;;;8.77;83.41;95336.91;1726756;82;20975;-55
2021/10/02 03:17:19;;;;;;;27.05;17.65;;;;;;;8.68;83.16;95335.33;1716698;82;21132;-56
2021/10/02 03:19:47;;;;;;;35.13;19.92;;;;;;;8.60;83.18;95330.40;1718939;83;21502;-56
2021/10/02 03:22:15;;;;;;;37.53;21.20;;;;;;;8.52;83.36;95342.67;1721515;82;20943;-56
2021/10/02 03:24:42;;;;;;;39.40;20.70;;;;;;;8.43;83.64;95329.51;1716803;82;21168;-55
2021/10/02 03:27:09;;;;;;;36.50;20.32;;;;;;;8.41;83.86;95330.53;1717810;82;20986;-56
2021/10/02 03:29:37;;;;;;;35.60;20.20;;;;;;;8.40;83.92;95335.83;1717210;82;21041;-56
2021/10/02 03:32:08;;;;;;;45.08;22.17;;;;;;;8.41;84.07;95337.38;1699648;82;21412;-55
2021/10/02 03:34:36;;;;;;;47.20;23.45;;;;;;;8.46;84.09;95334.15;1716234;82;21047;-55
2021/10/02 03:37:04;;;;;;;37.50;21.48;;;;;;;8.51;84.20;95346.03;1716893;82;21129;-56
2021/10/02 03:39:31;;;;;;;49.30;22.50;;;;;;;8.52;84.03;95338.56;1723189;82;20947;-56
2021/10/02 03:42:17;;;;;;;37.42;21.10;;;;;;;8.46;84.05;95342.38;1721281;82;21124;-56
2021/10/02 03:44:46;;;;;;;41.15;21.25;;;;;;;8.43;84.11;95341.84;1701545;82;21049;-56
2021/10/02 03:47:15;;;;;;;45.10;22.00;;;;;;;8.40;84.42;95342.69;1694239;83;20981;-56
2021/10/02 03:49:42;;;;;;;43.38;22.60;;;;;;;8.39;84.21;95338.40;1696444;83;22569;-56
2021/10/02 03:52:11;;;;;;;40.10;22.50;;;;;;;8.40;84.49;95340.56;1695114;83;20992;-56
2021/10/02 03:54:38;;;;;;;40.08;23.70;;;;;;;8.45;84.66;95338.70;1686203;83;21099;-56
2021/10/02 03:57:05;;;;;;;43.38;22.27;;;;;;;8.48;84.76;95337.27;1691278;83;21502;-56
2021/10/02 03:59:32;;;;;;;43.30;21.15;;;;;;;8.56;84.76;95327.71;1683091;83;21130;-56
2021/10/02 04:02:00;;;;;;;38.23;20.88;;;;;;;8.63;84.62;95335.04;1684308;83;21142;-57
2021/10/02 04:04:26;;;;;;;43.40;23.15;;;;;;;8.70;84.70;95330.20;1689872;83;20997;-57
2021/10/02 04:06:54;;;;;;;46.28;22.17;;;;;;;8.81;84.53;95333.50;1679937;83;21195;-57
2021/10/02 04:09:21;;;;;;;39.65;23.12;;;;;;;8.83;83.97;95330.34;1683667;84;20977;-55
2021/10/02 04:11:48;;;;;;;43.50;22.80;;;;;;;8.75;83.89;95336.56;1676690;83;21131;-55
2021/10/02 04:14:15;;;;;;;44.93;21.97;;;;;;;8.72;83.95;95333.29;1682621;83;21143;-57
2021/10/02 04:16:43;;;;;;;39.67;23.65;;;;;;;8.77;83.88;95332.03;1683028;83;20969;-57
2021/10/02 04:19:11;;;;;;;42.60;22.42;;;;;;;8.79;83.84;95335.89;1692765;83;21040;-56
2021/10/02 04:21:38;;;;;;;40.90;23.07;;;;;;;8.78;83.85;95337.08;1695190;83;21106;-56
2021/10/02 04:24:06;;;;;;;34.95;22.37;;;;;;;8.79;83.99;95338.63;1690339;83;21075;-57
2021/10/02 04:26:33;;;;;;;34.38;22.58;;;;;;;8.84;84.13;95338.14;1692548;83;21077;-57
2021/10/02 04:29:00;;;;;;;48.87;23.22;;;;;;;8.89;83.95;95344.52;1683711;83;20969;-58
2021/10/02 04:31:28;;;;;;;44.77;22.42;;;;;;;8.93;83.75;95339.16;1683763;83;21083;-56
2021/10/02 04:33:54;;;;;;;39.60;21.93;;;;;;;8.94;83.78;95344.81;1674695;84;21147;-57
2021/10/02 04:36:21;;;;;;;42.25;22.25;;;;;;;8.92;83.69;95343.06;1676875;83;21136;-57
2021/10/02 04:38:49;;;;;;;42.93;23.45;;;;;;;8.87;83.82;95348.29;1685233;83;21143;-57
2021/10/02 04:41:16;;;;;;;35.88;19.35;;;;;;;8.79;83.97;95345.48;1677586;83;21004;-58
2021/10/02 04:43:44;;;;;;;68.30;23.42;;;;;;;8.76;84.03;95349.08;1671280;83;21029;-57
2021/10/02 04:46:12;;;;;;;65.78;31.45;;;;;;;8.71;84.20;95347.41;1681162;83;20981;-57
2021/10/02 04:48:40;;;;;;;79.00;36.60;;;;;;;8.71;84.43;95356.43;1682412;83;20977;-56
2021/10/02 04:51:08;;;;;;;55.08;31.70;;;;;;;8.67;84.54;95348.88;1703462;84;21068;-58
2021/10/02 04:53:36;;;;;;;53.35;32.65;;;;;;;8.65;84.68;95344.98;1688180;83;21069;-57
2021/10/02 04:56:13;;;;;;;62.85;34.10;;;;;;;8.64;84.80;95353.04;1695080;83;21076;-58
2021/10/02 04:58:40;;;;;;;67.12;34.60;;;;;;;8.61;84.79;95354.64;1683858;83;20988;-57
2021/10/02 05:01:07;;;;;;;59.05;33.83;;;;;;;8.59;85.04;95352.92;1699829;83;21012;-57
2021/10/02 05:03:37;;;;;;;53.50;31.30;;;;;;;8.60;85.19;95352.34;1693308;83;21111;-59
2021/10/02 05:06:05;;;;;;;50.05;26.12;;;;;;;8.62;85.40;95357.56;1679821;83;21039;-57
2021/10/02 05:08:32;;;;;;;35.92;22.45;;;;;;;8.62;85.40;95367.16;1687362;83;21468;-56
2021/10/02 05:11:00;;;;;;;50.63;25.25;;;;;;;8.61;85.63;95364.24;1684906;84;21508;-56
2021/10/02 05:13:30;;;;;;;59.20;27.13;;;;;;;8.65;85.79;95362.81;1690629;83;21017;-56
2021/10/02 05:15:57;;;;;;;49.05;24.02;;;;;;;8.75;85.96;95363.98;1687477;83;21245;-56
2021/10/02 05:18:24;;;;;;;48.05;24.12;;;;;;;8.82;85.69;95370.70;1693861;83;21021;-57
2021/10/02 05:20:52;;;;;;;47.30;24.32;;;;;;;8.81;85.61;95369.77;1688911;84;21469;-57
2021/10/02 05:23:19;;;;;;;49.93;24.40;;;;;;;8.82;85.58;95372.69;1703261;83;21603;-57
2021/10/02 05:25:46;;;;;;;56.05;23.35;;;;;;;8.80;85.59;95376.45;1695391;83;21551;-55
2021/10/02 05:28:13;;;;;;;60.75;26.17;;;;;;;8.81;85.75;95371.91;1688821;83;21139;-57
2021/10/02 05:30:39;;;;;;;58.80;25.10;;;;;;;8.88;85.92;95369.05;1690912;83;21454;-56
2021/10/02 05:33:06;;;;;;;53.02;26.68;;;;;;;8.93;85.97;95370.71;1696354;83;21032;-57
2021/10/02 05:35:33;;;;;;;52.27;24.70;;;;;;;8.97;85.86;95374.73;1678670;83;21290;-57
2021/10/02 05:38:01;;;;;;;47.53;24.10;;;;;;;8.97;85.70;95374.16;1692695;84;20988;-58
2021/10/02 05:40:27;;;;;;;38.13;22.95;;;;;;;8.96;85.65;95375.94;1690451;84;21179;-56
2021/10/02 05:42:54;;;;;;;37.95;24.87;;;;;;;8.97;86.03;95378.86;1680792;83;21123;-57
2021/10/02 05:45:21;;;;;;;56.42;25.62;;;;;;;8.99;85.95;95377.83;1702895;84;20949;-57
2021/10/02 05:47:49;;;;;;;41.50;21.00;;;;;;;9.01;86.00;95384.45;1690013;84;20997;-57
2021/10/02 05:50:15;;;;;;;32.50;16.23;;;;;;;9.04;86.07;95384.23;1688601;83;21084;-56
2021/10/02 05:52:42;;;;;;;25.15;14.40;;;;;;;9.06;86.10;95391.44;1677934;83;21119;-56
2021/10/02 05:55:10;;;;;;;22.48;14.10;;;;;;;9.07;86.07;95384.14;1693585;84;21095;-57
2021/10/02 05:57:37;;;;;;;25.85;13.65;;;;;;;9.06;86.03;95385.95;1680141;83;21572;-58
2021/10/02 06:00:08;;;;;;;35.25;16.85;;;;;;;9.10;86.03;95384.66;1693133;83;20984;-57
2021/10/02 06:02:36;;;;;;;29.23;15.38;;;;;;;9.17;86.20;95385.13;1686080;83;21018;-57
2021/10/02 06:05:04;;;;;;;22.75;12.43;;;;;;;9.28;86.08;95388.44;1680905;83;21088;-56
2021/10/02 06:07:31;;;;;;;17.82;12.28;;;;;;;9.37;85.47;95392.17;1688367;83;21100;-57
2021/10/02 06:09:57;;;;;;;16.93;12.00;;;;;;;9.41;85.05;95396.23;1677910;83;21107;-58
2021/10/02 06:12:24;;;;;;;16.42;11.22;;;;;;;9.38;84.67;95393.72;1696592;83;21491;-58
2021/10/02 06:14:52;;;;;;;18.27;12.88;;;;;;;9.37;84.48;95395.50;1675145;83;21456;-57
2021/10/02 06:17:18;;;;;;;15.48;12.55;;;;;;;9.35;84.39;95386.33;1680001;84;21189;-58
2021/10/02 06:19:46;;;;;;;19.42;12.78;;;;;;;9.38;84.26;95395.09;1705169;83;20992;-58
2021/10/02 06:22:14;;;;;;;20.62;12.33;;;;;;;9.42;84.46;95395.03;1691292;83;21045;-58
2021/10/02 06:24:41;;;;;;;28.17;13.85;;;;;;;9.54;84.56;95386.12;1678038;83;21520;-58
2021/10/02 06:27:08;;;;;;;28.62;14.33;;;;;;;9.65;84.49;95382.56;1695928;83;21528;-58
2021/10/02 06:29:35;;;;;;;27.65;15.40;;;;;;;9.77;83.95;95390.16;1689543;83;21108;-57
2021/10/02 06:32:03;;;;;;;27.13;16.07;;;;;;;9.84;83.51;95388.61;1689884;83;21060;-57
2021/10/02 06:34:31;;;;;;;20.68;14.53;;;;;;;9.82;83.01;95388.27;1692109;83;20972;-58
2021/10/02 06:36:57;;;;;;;31.42;14.93;;;;;;;9.74;82.78;95389.61;1691161;83;21013;-59
2021/10/02 06:39:24;;;;;;;31.73;15.70;;;;;;;9.63;82.98;95391.83;1699838;83;21480;-59
2021/10/02 06:41:51;;;;;;;35.75;15.32;;;;;;;9.56;83.19;95394.12;1694481;83;21062;-57
2021/10/02 06:44:17;;;;;;;21.07;12.13;;;;;;;9.56;83.43;95396.08;1692959;83;20964;-57
2021/10/02 06:46:44;;;;;;;23.80;13.48;;;;;;;9.60;83.33;95388.56;1690085;83;21106;-59
2021/10/02 06:49:11;;;;;;;28.12;13.48;;;;;;;9.63;83.29;95391.83;1684821;83;21095;-58
2021/10/02 06:51:39;;;;;;;22.15;13.72;;;;;;;9.64;83.26;95392.00;1688099;84;21013;-56
2021/10/02 06:54:05;;;;;;;23.52;13.50;;;;;;;9.70;83.52;95389.70;1689552;83;22390;-57
2021/10/02 06:56:34;;;;;;;19.75;13.00;;;;;;;9.77;83.22;95394.28;1684408;83;21078;-57
2021/10/02 06:59:01;;;;;;;23.42;13.62;;;;;;;9.83;83.12;95392.56;1682771;83;20999;-57
2021/10/02 07:01:27;;;;;;;24.80;12.37;;;;;;;9.93;82.84;95391.54;1679698;84;21475;-58
2021/10/02 07:03:55;;;;;;;20.72;13.28;;;;;;;10.03;82.61;95387.81;1691066;83;21013;-57
2021/10/02 07:06:22;;;;;;;18.77;12.55;;;;;;;10.08;82.13;95393.59;1688903;83;21110;-56
2021/10/02 07:08:49;;;;;;;20.00;14.15;;;;;;;10.13;81.78;95397.19;1680079;83;21036;-57
2021/10/02 07:11:17;;;;;;;21.55;11.60;;;;;;;10.13;81.47;95393.06;1693820;83;21012;-58
2021/10/02 07:13:44;;;;;;;17.00;13.00;;;;;;;10.16;81.61;95396.95;1687647;83;21552;-58
2021/10/02 07:16:13;;;;;;;19.70;13.68;;;;;;;10.23;81.41;95398.14;1687540;83;21599;-57
2021/10/02 07:18:39;;;;;;;18.37;13.45;;;;;;;10.29;81.28;95393.67;1699382;83;21163;-58
2021/10/02 07:21:06;;;;;;;25.10;15.10;;;;;;;10.36;81.17;95390.16;1694392;84;21075;-58
2021/10/02 07:23:35;;;;;;;19.20;12.18;;;;;;;10.47;81.06;95392.64;1694601;83;20960;-58
2021/10/02 07:26:03;;;;;;;26.60;12.63;;;;;;;10.66;80.94;95394.52;1695752;83;21151;-59
2021/10/02 07:28:31;;;;;;;18.00;12.93;;;;;;;10.75;80.13;95389.36;1693604;83;21005;-58
2021/10/02 07:30:58;;;;;;;14.05;11.33;;;;;;;10.84;79.73;95386.75;1678710;83;21131;-58
2021/10/02 07:33:24;;;;;;;16.73;11.22;;;;;;;10.90;78.90;95385.62;1690960;83;21531;-57
2021/10/02 07:35:52;;;;;;;16.57;12.00;;;;;;;10.86;78.92;95385.74;1688623;83;21044;-57
2021/10/02 07:38:20;;;;;;;16.50;10.80;;;;;;;10.89;78.66;95386.25;1703575;83;21023;-59
2021/10/02 07:40:46;;;;;;;26.33;13.65;;;;;;;10.95;78.57;95383.13;1689475;83;21033;-59
2021/10/02 07:43:13;;;;;;;23.00;12.85;;;;;;;11.00;78.30;95372.95;1684042;83;21118;-58
2021/10/02 07:45:40;;;;;;;20.52;12.25;;;;;;;11.13;78.27;95373.03;1678422;84;20983;-59
2021/10/02 07:48:08;;;;;;;17.27;11.75;;;;;;;11.28;78.03;95372.19;1681782;83;21032;-57
2021/10/02 07:50:34;;;;;;;17.23;11.38;;;;;;;11.43;77.56;95366.45;1680385;83;21532;-56
2021/10/02 07:53:01;;;;;;;19.07;11.05;;;;;;;11.57;77.45;95364.67;1684143;83;21012;-58
2021/10/02 07:55:29;;;;;;;15.43;11.95;;;;;;;11.78;76.81;95368.20;1689172;83;21567;-58
2021/10/02 07:57:56;;;;;;;17.25;12.63;;;;;;;11.89;76.11;95364.50;1680774;83;21142;-60
2021/10/02 08:00:23;;;;;;;20.77;13.35;;;;;;;12.01;75.83;95359.61;1685774;83;20988;-59
2021/10/02 08:02:55;;;;;;;19.92;11.97;;;;;;;12.15;75.36;95361.93;1695060;83;20977;-58
2021/10/02 08:05:22;;;;;;;16.25;12.23;;;;;;;12.24;74.88;95359.88;1706461;83;21480;-58
2021/10/02 08:07:49;;;;;;;19.77;12.15;;;;;;;12.26;74.20;95360.20;1691469;83;21231;-59
2021/10/02 08:10:20;;;;;;;18.60;12.90;;;;;;;12.25;74.29;95356.66;1690522;83;21166;-58
2021/10/02 08:12:48;;;;;;;18.25;12.10;;;;;;;12.34;74.31;95352.64;1700703;84;21515;-58
2021/10/02 08:15:17;;;;;;;19.52;10.63;;;;;;;12.42;74.02;95356.70;1707053;83;21104;-58
2021/10/02 08:17:45;;;;;;;17.50;11.00;;;;;;;12.42;73.35;95349.80;1702589;83;21685;-59
2021/10/02 08:20:18;;;;;;;19.73;11.90;;;;;;;12.34;73.42;95348.50;1688031;83;21119;-59
2021/10/02 08:22:54;;;;;;;17.23;11.33;;;;;;;12.28;73.62;95343.98;1693799;84;21070;-57
2021/10/02 08:25:22;;;;;;;18.62;10.35;;;;;;;12.25;73.52;95344.25;1683362;83;21176;-58
2021/10/02 08:27:49;;;;;;;14.18;11.78;;;;;;;12.21;73.84;95336.70;1686586;83;21033;-58
2021/10/02 08:30:19;;;;;;;14.95;9.00;;;;;;;12.25;73.85;95328.32;1692437;83;21433;-58
2021/10/02 08:32:46;;;;;;;16.00;11.53;;;;;;;12.36;73.83;95324.00;1703499;83;21477;-58
2021/10/02 08:35:15;;;;;;;15.10;10.58;;;;;;;12.43;73.75;95321.61;1704574;83;21063;-58
2021/10/02 08:37:43;;;;;;;15.40;9.88;;;;;;;12.51;73.82;95315.41;1694487;83;20949;-58
2021/10/02 08:40:14;;;;;;;15.23;10.25;;;;;;;12.61;73.72;95318.41;1675908;83;20988;-58
2021/10/02 08:42:41;;;;;;;16.00;10.35;;;;;;;12.75;73.62;95311.03;1684241;83;21441;-60
2021/10/02 08:45:09;;;;;;;18.25;11.25;;;;;;;12.89;73.56;95298.87;1682081;83;21220;-57
2021/10/02 08:47:40;;;;;;;16.45;11.22;;;;;;;13.06;73.18;95296.74;1687239;83;21091;-58
2021/10/02 08:50:08;;;;;;;20.55;11.50;;;;;;;13.20;72.81;95292.84;1687403;83;21076;-59
2021/10/02 08:52:37;;;;;;;28.02;16.60;;;;;;;13.36;72.42;95293.24;1686125;83;21559;-59
2021/10/02 08:55:06;;;;;;;18.90;13.60;;;;;;;13.51;71.95;95285.97;1693506;83;20948;-57
2021/10/02 08:57:35;;;;;;;16.40;10.90;;;;;;;13.64;71.46;95290.17;1687639;83;21269;-59
2021/10/02 09:00:11;;;;;;;15.13;9.30;;;;;;;13.83;71.39;95285.52;1670892;83;21291;-58
2021/10/02 09:02:39;;;;;;;17.10;11.45;;;;;;;14.06;70.99;95282.22;1685530;83;21012;-58
2021/10/02 09:05:09;;;;;;;16.65;11.45;;;;;;;14.29;70.36;95277.53;1686723;83;21238;-58
2021/10/02 09:07:35;;;;;;;23.52;13.62;;;;;;;14.52;69.68;95274.98;1690821;83;21103;-58
2021/10/02 09:10:09;;;;;;;21.87;12.82;;;;;;;14.74;69.16;95273.63;1708788;83;20993;-58
2021/10/02 09:12:38;;;;;;;22.53;14.97;;;;;;;14.95;68.31;95271.31;1674873;83;21461;-58
2021/10/02 09:15:08;;;;;;;26.95;15.45;;;;;;;15.12;67.85;95271.15;1699221;84;21172;-58
2021/10/02 09:17:36;;;;;;;27.62;17.60;;;;;;;15.30;67.69;95262.84;1680036;83;21012;-58
2021/10/02 09:20:07;;;;;;;22.65;15.50;;;;;;;15.47;67.19;95267.41;1680794;83;20960;-57
2021/10/02 09:22:35;;;;;;;26.85;14.73;;;;;;;15.65;66.88;95258.44;1693467;83;21200;-58
2021/10/02 09:25:09;;;;;;;20.70;14.28;;;;;;;15.85;65.96;95257.29;1680264;83;21075;-59
2021/10/02 09:27:36;;;;;;;18.13;12.63;;;;;;;16.10;64.41;95257.50;1695147;83;21182;-57
2021/10/02 09:30:11;;;;;;;19.80;12.13;;;;;;;16.28;63.04;95251.21;1694074;83;21489;-58
2021/10/02 09:32:43;;;;;;;17.32;11.20;;;;;;;16.49;62.12;95241.84;1682765;83;21603;-59
2021/10/02 09:35:21;;;;;;;12.20;9.30;;;;;;;16.86;61.26;95243.12;1696685;83;21136;-58
2021/10/02 09:37:54;;;;;;;23.50;10.53;;;;;;;17.31;59.61;95241.34;1696074;83;20997;-57
2021/10/02 09:40:22;;;;;;;14.33;9.50;;;;;;;17.83;58.15;95237.72;1689452;83;20973;-58
2021/10/02 09:42:55;;;;;;;13.75;10.15;;;;;;;18.40;56.54;95239.61;1692334;83;20957;-57
2021/10/02 09:45:29;;;;;;;17.02;8.65;;;;;;;18.99;55.02;95233.30;1696317;83;21119;-59
2021/10/02 09:48:00;;;;;;;10.72;7.65;;;;;;;19.62;53.60;95232.22;1667976;85;21148;-57
2021/10/02 09:50:29;;;;;;;12.73;8.95;;;;;;;20.27;51.37;95234.02;1643037;87;21046;-57
2021/10/02 09:53:10;;;;;;;13.18;7.00;;;;;;;20.87;50.02;95219.63;1657996;84;21037;-58
2021/10/02 09:55:44;;;;;;;9.60;6.03;;;;;;;21.56;48.73;95217.42;1629466;86;21069;-57
2021/10/02 09:58:17;;;;;;;9.93;7.40;;;;;;;22.31;46.48;95218.72;1668994;85;21420;-58
2021/10/02 10:00:48;;;;;;;12.20;6.33;;;;;;;22.83;43.82;95208.42;1633154;86;21162;-58
2021/10/02 10:03:18;;;;;;;15.32;11.28;;;;;;;23.25;44.08;95209.44;1661245;85;21533;-58
2021/10/02 10:05:51;;;;;;;15.40;6.03;;;;;;;23.80;42.15;95211.12;1688957;83;20969;-57
2021/10/02 10:08:26;;;;;;;8.48;5.28;;;;;;;24.35;40.76;95201.63;1689598;83;21040;-58
2021/10/02 10:11:08;;;;;;;12.85;5.35;;;;;;;24.94;39.67;95203.68;1680678;83;21099;-57
2021/10/02 10:13:35;;;;;;;10.38;5.20;;;;;;;25.38;38.02;95198.16;1644106;85;21492;-58
2021/10/02 10:16:10;;;;;;;9.68;4.15;;;;;;;25.82;37.20;95198.95;1630737;86;20971;-58
2021/10/02 10:18:39;;;;;;;6.58;4.37;;;;;;;26.11;35.52;95192.45;1647293;85;21172;-58
2021/10/02 10:21:10;;;;;;;9.10;4.35;;;;;;;26.37;34.85;95189.72;1622970;86;21014;-60
2021/10/02 10:23:45;;;;;;;6.22;3.95;;;;;;;26.57;34.30;95190.53;1637394;86;21411;-57
2021/10/02 10:26:15;;;;;;;4.62;3.47;;;;;;;26.77;33.96;95187.70;1637936;86;21154;-59
2021/10/02 10:28:48;;;;;;;4.80;3.45;;;;;;;26.87;32.94;95190.97;1692705;83;20960;-57
2021/10/02 10:31:20;;;;;;;3.42;3.12;;;;;;;27.05;32.33;95190.09;1682095;84;21044;-58
2021/10/02 10:33:50;;;;;;;11.10;3.92;;;;;;;27.27;30.49;95185.45;1701281;83;21055;-58
2021/10/02 10:36:18;;;;;;;8.60;3.77;;;;;;;27.49;31.04;95187.79;1685595;84;21084;-61
2021/10/02 10:38:45;;;;;;;7.72;3.62;;;;;;;27.56;29.54;95185.70;1680675;83;21138;-59
2021/10/02 10:41:14;;;;;;;6.78;3.15;;;;;;;27.19;29.55;95178.92;1696511;83;20938;-58
2021/10/02 10:43:41;;;;;;;5.67;3.25;;;;;;;26.96;30.94;95180.66;1686002;83;20991;-58
2021/10/02 10:46:11;;;;;;;6.10;3.65;;;;;;;27.16;31.23;95178.61;1670396;83;21492;-57
2021/10/02 10:48:38;;;;;;;6.03;3.10;;;;;;;27.47;30.30;95181.92;1686848;83;21028;-57
2021/10/02 10:51:07;;;;;;;8.83;4.00;;;;;;;27.72;29.83;95171.86;1699941;83;21143;-60
2021/10/02 10:53:44;;;;;;;5.92;3.65;;;;;;;28.02;29.02;95167.27;1696222;84;20973;-59
2021/10/02 10:56:14;;;;;;;5.28;3.67;;;;;;;28.19;28.42;95161.96;1669813;85;21016;-58
2021/10/02 10:58:43;;;;;;;8.50;3.70;;;;;;;28.39;28.24;95161.88;1619540;86;21105;-60
2021/10/02 11:01:11;;;;;;;9.73;3.70;;;;;;;28.54;28.63;95156.31;1696571;83;21193;-57
2021/10/02 11:03:46;;;;;;;9.03;3.98;;;;;;;28.78;27.75;95148.18;1703111;84;21134;-57
2021/10/02 11:06:15;;;;;;;6.15;3.42;;;;;;;28.94;27.63;95147.66;1703337;84;21440;-58
2021/10/02 11:09:05;;;;;;;7.15;3.35;;;;;;;29.13;27.53;95148.14;1690677;83;20969;-58
2021/10/02 11:11:53;;;;;;;8.88;3.90;;;;;;;29.29;27.06;95142.64;1685750;83;21471;-58
2021/10/02 11:14:25;;;;;;;4.83;3.60;;;;;;;29.48;27.09;95148.80;1678511;83;20965;-58
2021/10/02 11:16:59;;;;;;;5.58;3.25;;;;;;;29.62;27.30;95141.64;1705934;83;21129;-58
2021/10/02 11:19:37;;;;;;;4.80;3.02;;;;;;;29.72;26.29;95139.80;1695302;83;21036;-58
2021/10/02 11:23:08;;;;;;;6.72;3.33;;;;;;;29.80;26.89;95132.05;1684069;83;21571;-58
2021/10/02 11:25:36;;;;;;;5.85;3.00;;;;;;;29.77;26.08;95131.11;1653673;86;21065;-59
2021/10/02 11:28:27;;;;;;;8.05;4.12;;;;;;;29.75;25.37;95128.08;1640910;86;20986;-58
2021/10/02 11:30:56;;;;;;;5.08;3.83;;;;;;;29.89;26.34;95118.83;1674141;84;21092;-58
2021/10/02 11:33:42;;;;;;;8.55;3.40;;;;;;;30.19;26.34;95121.74;1690551;83;21270;-58
2021/10/02 11:36:32;;;;;;;6.37;3.98;;;;;;;30.39;25.93;95120.80;1696763;83;20996;-58
2021/10/02 11:39:28;;;;;;;8.68;3.52;;;;;;;30.48;25.58;95113.10;1683929;83;21131;-57
2021/10/02 11:42:12;;;;;;;7.08;3.60;;;;;;;30.41;26.29;95108.84;1679361;83;21466;-58
2021/10/02 11:44:47;;;;;;;5.42;3.55;;;;;;;30.00;25.74;95115.64;1676600;84;21146;-58
2021/10/02 11:47:36;;;;;;;7.78;4.58;;;;;;;29.34;26.07;95110.53;1682707;83;21671;-58
2021/10/02 11:50:15;;;;;;;7.20;4.72;;;;;;;28.79;26.68;95105.05;1684727;83;21075;-58
2021/10/02 11:52:53;;;;;;;7.75;4.00;;;;;;;28.02;27.32;95100.78;1683440;83;21009;-56
2021/10/02 11:55:43;;;;;;;8.40;4.03;;;;;;;27.26;28.41;95101.95;1696862;83;20979;-58
2021/10/02 11:58:12;;;;;;;8.73;4.33;;;;;;;26.77;29.52;95100.95;1695063;83;20946;-58
2021/10/02 12:00:52;;;;;;;7.60;5.05;;;;;;;26.06;30.37;95098.82;1669408;85;21136;-60
2021/10/02 12:03:32;;;;;;;12.55;5.03;;;;;;;25.93;31.84;95094.56;1649849;87;21040;-57
2021/10/02 12:06:02;;;;;;;11.28;4.10;;;;;;;26.40;31.27;95095.50;1686878;83;21040;-59
2021/10/02 12:08:30;;;;;;;8.23;4.37;;;;;;;27.14;31.13;95093.63;1658052;85;20958;-58
2021/10/02 12:11:09;;;;;;;8.18;4.55;;;;;;;27.79;30.48;95094.81;1684760;83;21499;-57
2021/10/02 12:13:50;;;;;;;7.95;4.92;;;;;;;28.17;29.55;95095.89;1669236;85;21067;-59
2021/10/02 12:16:28;;;;;;;5.20;3.85;;;;;;;28.45;29.87;95091.70;1628453;86;21478;-57
2021/10/02 12:19:08;;;;;;;5.50;4.10;;;;;;;28.61;29.33;95088.41;1627312;86;21153;-57
2021/10/02 12:21:45;;;;;;;11.03;5.15;;;;;;;28.20;28.68;95094.80;1645920;86;21574;-57
2021/10/02 12:24:22;;;;;;;13.62;5.05;;;;;;;27.38;30.67;95093.33;1641320;86;21196;-56
2021/10/02 12:27:03;;;;;;;7.12;5.40;;;;;;;26.75;32.19;95088.02;1651161;86;21029;-57
2021/10/02 12:29:35;;;;;;;10.70;5.70;;;;;;;26.67;33.20;95087.15;1639441;86;21465;-57
2021/10/02 12:32:12;;;;;;;9.73;5.67;;;;;;;27.15;32.97;95083.07;1681031;83;21460;-58
2021/10/02 12:34:42;;;;;;;13.78;7.33;;;;;;;27.62;32.25;95085.94;1682238;83;21106;-59